Terminal Aerodrome Forecast
Issued by NWS

Home | Current Version | Previous Version | Text Only | Print | Product List | Glossary On
Versions: 1 2 3 4 5 6 7 8 9 10 11 12 13 14 15 16
000
FTUS44 KTSA 282300
TAFFYV
TAF
KFYV 282320Z 2900/2924 16008KT P6SM FEW250
     FM291400 18012KT P6SM BKN250
     FM291800 21007KT P6SM BKN120
     FM292200 27007KT P6SM BKN100=

USA.gov is the U.S. government's official web portal to all federal, state and local government web resources and services.